Time;durP1;ratioP1;P1;durP2;ratioP2;P2;SDS_P1;SDS_P2;PMS_P1;PMS_P2;Temp;Humidity;BMP_temperature;BMP_pressure;BME280_temperature;BME280_humidity;BME280_pressure;Samples;Min_cycle;Max_cycle;Signal;HPM_P1;HPM_P2
2023/03/30 00:01:53;;;;;;;;;;;;;;;6.43;52.97;95805.00;5053109;28;1258;-55
2023/03/30 00:04:21;;;;;;;;;;;;;;;6.53;53.20;95814.91;5053040;28;1043;-55
2023/03/30 00:06:49;;;;;;;;;;;;;;;6.53;53.39;95806.94;5051388;28;1287;-55
2023/03/30 00:09:15;;;;;;;;;;;;;;;6.59;53.19;95809.09;5052699;28;1081;-55
2023/03/30 00:11:42;;;;;;;;;;;;;;;6.65;52.60;95805.97;5052828;28;1909;-55
2023/03/30 00:14:08;;;;;;;;;;;;;;;6.74;52.59;95815.03;5052883;28;973;-55
2023/03/30 00:16:34;;;;;;;;;;;;;;;6.78;52.51;95813.81;5052588;28;1052;-55
2023/03/30 00:19:00;;;;;;;;;;;;;;;6.74;51.55;95818.53;5052949;28;994;-55
2023/03/30 00:21:27;;;;;;;;;;;;;;;6.76;52.35;95813.94;5053183;28;954;-55
2023/03/30 00:23:52;;;;;;;;;;;;;;;6.74;52.34;95802.59;5056479;28;1579;-55
2023/03/30 00:26:19;;;;;;;;;;;;;;;6.78;52.63;95800.53;5056375;28;1360;-55
2023/03/30 00:28:45;;;;;;;;;;;;;;;6.77;52.55;95799.69;5056468;28;1025;-55
2023/03/30 00:31:11;;;;;;;;;;;;;;;6.65;53.08;95792.69;5056306;28;1050;-55
2023/03/30 00:33:37;;;;;;;;;;;;;;;6.64;53.25;95798.97;5056385;28;1985;-55
2023/03/30 00:36:03;;;;;;;;;;;;;;;6.73;52.66;95795.56;5056270;28;1204;-55
2023/03/30 00:38:29;;;;;;;;;;;;;;;6.73;52.81;95787.59;5055994;28;1248;-55
2023/03/30 00:40:56;;;;;;;;;;;;;;;6.66;52.97;95789.06;5056299;28;969;-55
2023/03/30 00:43:23;;;;;;;;;;;;;;;6.67;53.32;95784.59;5056102;28;1104;-55
2023/03/30 00:45:50;;;;;;;;;;;;;;;6.70;53.03;95784.34;5055979;28;1052;-55
2023/03/30 00:48:21;;;;;;;;;;;;;;;6.68;53.35;95786.25;5055862;28;1073;-55
2023/03/30 00:50:50;;;;;;;;;;;;;;;6.70;53.51;95782.53;5056304;28;1017;-55
2023/03/30 00:53:20;;;;;;;;;;;;;;;6.67;53.40;95780.09;5056081;28;2009;-55
2023/03/30 00:55:48;;;;;;;;;;;;;;;6.70;53.35;95776.38;5054531;28;1383;-55
2023/03/30 00:58:15;;;;;;;;;;;;;;;6.73;53.84;95765.50;5056147;28;1016;-55
2023/03/30 01:00:42;;;;;;;;;;;;;;;6.71;53.80;95770.09;5055856;28;978;-55
2023/03/30 01:03:29;;;;;;;;;;;;;;;6.72;54.21;95774.44;5055596;28;1033;-55
2023/03/30 01:05:56;;;;;;;;;;;;;;;6.69;54.08;95772.84;5055074;28;1536;-55
2023/03/30 01:08:22;;;;;;;;;;;;;;;6.63;54.00;95768.88;5055380;28;969;-55
2023/03/30 01:10:50;;;;;;;;;;;;;;;6.68;54.39;95781.81;5054914;28;1026;-55
2023/03/30 01:13:16;;;;;;;;;;;;;;;6.59;54.87;95772.75;5055747;28;2000;-55
2023/03/30 01:16:01;;;;;;;;;;;;;;;6.63;55.27;95768.03;5055502;28;1041;-55
2023/03/30 01:18:38;;;;;;;;;;;;;;;6.65;54.39;95768.75;5055351;28;1101;-55
2023/03/30 01:21:22;;;;;;;;;;;;;;;6.61;54.42;95762.00;5055810;28;965;-55
2023/03/30 01:23:57;;;;;;;;;;;;;;;6.48;56.33;95769.25;5055325;28;1511;-55
2023/03/30 01:26:23;;;;;;;;;;;;;;;6.39;56.59;95763.72;5055663;28;1055;-55
2023/03/30 01:28:56;;;;;;;;;;;;;;;6.35;56.78;95764.88;5054440;28;973;-55
2023/03/30 01:31:41;;;;;;;;;;;;;;;6.36;56.77;95760.44;5055430;28;974;-55
2023/03/30 01:34:13;;;;;;;;;;;;;;;6.29;57.18;95754.75;5054848;28;1048;-55
2023/03/30 01:36:45;;;;;;;;;;;;;;;6.22;58.02;95751.75;5055411;28;1074;-55
2023/03/30 01:39:29;;;;;;;;;;;;;;;6.12;58.31;95756.06;5055045;28;1870;-55
2023/03/30 01:42:13;;;;;;;;;;;;;;;6.08;58.54;95762.59;5055326;28;1047;-55
2023/03/30 01:44:51;;;;;;;;;;;;;;;6.08;57.86;95759.09;5054981;28;1038;-55
2023/03/30 01:47:22;;;;;;;;;;;;;;;6.09;57.99;95761.63;5053969;28;1049;-54
2023/03/30 01:49:48;;;;;;;;;;;;;;;6.14;57.41;95762.09;5054887;28;1046;-55
2023/03/30 01:52:27;;;;;;;;;;;;;;;6.14;57.69;95761.25;5054984;28;1988;-55
2023/03/30 01:54:57;;;;;;;;;;;;;;;6.13;57.66;95763.09;5053965;28;959;-55
2023/03/30 01:57:33;;;;;;;;;;;;;;;6.16;57.59;95754.84;5054633;28;1025;-55
2023/03/30 02:00:12;;;;;;;;;;;;;;;6.23;57.72;95768.53;5054748;28;1049;-55
2023/03/30 02:02:44;;;;;;;;;;;;;;;6.18;57.65;95760.88;5054858;28;1005;-55
2023/03/30 02:05:14;;;;;;;;;;;;;;;6.26;56.85;95762.97;5054568;28;1640;-55
2023/03/30 02:07:42;;;;;;;;;;;;;;;6.33;56.60;95769.47;5054932;28;1039;-55
2023/03/30 02:10:09;;;;;;;;;;;;;;;6.26;57.00;95765.63;5054496;28;1041;-55
2023/03/30 02:12:35;;;;;;;;;;;;;;;6.23;57.12;95758.72;5054637;28;1906;-55
2023/03/30 02:15:06;;;;;;;;;;;;;;;6.22;57.43;95762.38;5054694;28;1145;-54
2023/03/30 02:17:32;;;;;;;;;;;;;;;6.11;58.76;95759.69;5054314;28;1036;-55
2023/03/30 02:19:58;;;;;;;;;;;;;;;6.11;58.48;95765.00;5053511;28;1021;-55
2023/03/30 02:22:26;;;;;;;;;;;;;;;6.15;58.70;95762.97;5054488;28;961;-55
2023/03/30 02:24:53;;;;;;;;;;;;;;;6.11;58.61;95764.16;5054405;28;1312;-55
2023/03/30 02:27:20;;;;;;;;;;;;;;;6.03;58.75;95768.25;5054177;28;1026;-55
2023/03/30 02:29:46;;;;;;;;;;;;;;;5.91;59.66;95776.28;5054448;28;1012;-55
2023/03/30 02:32:35;;;;;;;;;;;;;;;5.80;59.94;95777.09;5054003;28;1910;-55
2023/03/30 02:35:01;;;;;;;;;;;;;;;5.84;59.57;95765.28;5054057;28;1073;-55
2023/03/30 02:37:38;;;;;;;;;;;;;;;5.94;59.49;95768.94;5053894;28;1243;-55
2023/03/30 02:40:11;;;;;;;;;;;;;;;5.99;59.11;95763.28;5054066;28;1203;-54
2023/03/30 02:42:40;;;;;;;;;;;;;;;6.06;58.91;95752.06;5053954;28;1840;-55
2023/03/30 02:45:10;;;;;;;;;;;;;;;6.01;59.71;95742.78;5051944;28;1051;-55
2023/03/30 02:47:59;;;;;;;;;;;;;;;5.85;60.47;95751.88;5053687;28;1156;-55
2023/03/30 02:50:44;;;;;;;;;;;;;;;5.71;60.61;95759.22;5048334;28;1216;-55
2023/03/30 02:53:22;;;;;;;;;;;;;;;5.70;61.22;95770.78;5053631;28;2005;-54
2023/03/30 02:56:02;;;;;;;;;;;;;;;5.72;61.20;95774.19;5053977;28;1027;-53
2023/03/30 02:58:35;;;;;;;;;;;;;;;5.86;61.04;95763.34;5053607;28;1985;-54
2023/03/30 03:01:04;;;;;;;;;;;;;;;5.95;62.16;95767.13;5053688;28;1013;-54
2023/03/30 03:03:36;;;;;;;;;;;;;;;5.90;61.35;95769.25;5052274;28;1042;-54
2023/03/30 03:06:03;;;;;;;;;;;;;;;5.86;61.99;95769.53;5053457;28;1120;-54
2023/03/30 03:08:32;;;;;;;;;;;;;;;5.75;61.85;95776.56;5053659;28;1003;-54
2023/03/30 03:10:59;;;;;;;;;;;;;;;5.73;61.21;95778.50;5053671;28;969;-54
2023/03/30 03:13:26;;;;;;;;;;;;;;;5.67;61.07;95769.19;5052329;28;2005;-54
2023/03/30 03:15:55;;;;;;;;;;;;;;;5.77;60.95;95775.53;5053372;28;981;-54
2023/03/30 03:18:22;;;;;;;;;;;;;;;5.81;61.51;95768.19;5053528;28;978;-54
2023/03/30 03:20:49;;;;;;;;;;;;;;;5.78;60.54;95776.34;5053290;28;1034;-54
2023/03/30 03:23:15;;;;;;;;;;;;;;;5.73;61.25;95767.91;5053288;28;1343;-54
2023/03/30 03:25:41;;;;;;;;;;;;;;;5.75;61.40;95773.94;5053454;28;1080;-54
2023/03/30 03:28:07;;;;;;;;;;;;;;;5.82;60.76;95775.16;5053499;28;1036;-54
2023/03/30 03:30:33;;;;;;;;;;;;;;;5.84;61.77;95775.88;5053069;28;966;-54
2023/03/30 03:33:00;;;;;;;;;;;;;;;5.83;61.28;95768.91;5053368;28;2020;-54
2023/03/30 03:35:28;;;;;;;;;;;;;;;5.75;61.81;95768.63;5053130;28;1043;-54
2023/03/30 03:37:54;;;;;;;;;;;;;;;5.55;63.19;95770.97;5052996;28;1082;-54
2023/03/30 03:40:20;;;;;;;;;;;;;;;5.42;64.35;95776.34;5053210;28;1032;-54
2023/03/30 03:42:47;;;;;;;;;;;;;;;5.39;63.69;95775.75;5053017;28;1109;-54
2023/03/30 03:45:13;;;;;;;;;;;;;;;5.22;63.49;95777.00;5052830;28;1034;-54
2023/03/30 03:47:39;;;;;;;;;;;;;;;5.33;64.32;95766.44;5053085;28;1013;-54
2023/03/30 03:50:08;;;;;;;;;;;;;;;5.31;63.56;95762.19;5052942;28;1036;-54
2023/03/30 03:52:35;;;;;;;;;;;;;;;5.31;64.06;95763.03;5053141;28;1903;-54
2023/03/30 03:55:02;;;;;;;;;;;;;;;5.38;63.67;95774.06;5053095;28;1001;-54
2023/03/30 03:57:28;;;;;;;;;;;;;;;5.32;63.09;95748.00;5054917;28;1089;-54
2023/03/30 03:59:56;;;;;;;;;;;;;;;5.47;63.65;95768.06;5057007;28;1069;-54
2023/03/30 04:02:22;;;;;;;;;;;;;;;5.50;63.35;95765.16;5056868;28;1046;-54
2023/03/30 04:04:49;;;;;;;;;;;;;;;5.52;62.90;95773.00;5057127;28;1051;-54
2023/03/30 04:07:15;;;;;;;;;;;;;;;5.49;64.14;95782.06;5056719;28;978;-54
2023/03/30 04:09:41;;;;;;;;;;;;;;;5.54;63.34;95784.34;5056725;28;1057;-54
2023/03/30 04:12:07;;;;;;;;;;;;;;;5.55;64.18;95780.75;5056624;28;1902;-53
2023/03/30 04:14:33;;;;;;;;;;;;;;;5.53;63.61;95782.69;5056795;28;1005;-54
2023/03/30 04:17:00;;;;;;;;;;;;;;;5.51;63.52;95797.84;5056904;28;1032;-53
2023/03/30 04:19:26;;;;;;;;;;;;;;;5.47;63.85;95794.59;5056482;28;1073;-53
2023/03/30 04:21:54;;;;;;;;;;;;;;;5.45;64.55;95785.91;5056829;28;982;-54
2023/03/30 04:24:21;;;;;;;;;;;;;;;5.22;64.95;95795.56;5056436;28;1513;-54
2023/03/30 04:26:47;;;;;;;;;;;;;;;4.97;65.91;95793.81;5056811;28;1087;-54
2023/03/30 04:29:15;;;;;;;;;;;;;;;4.85;66.10;95793.75;5056246;28;1066;-54
2023/03/30 04:31:45;;;;;;;;;;;;;;;5.01;66.61;95803.28;5056442;28;1108;-53
2023/03/30 04:34:12;;;;;;;;;;;;;;;5.15;66.34;95797.81;5056261;28;1031;-54
2023/03/30 04:36:42;;;;;;;;;;;;;;;5.17;66.45;95809.13;5056082;28;1121;-54
2023/03/30 04:39:10;;;;;;;;;;;;;;;4.95;66.61;95793.09;5056597;28;1029;-54
2023/03/30 04:41:36;;;;;;;;;;;;;;;4.66;67.55;95796.88;5056348;28;1051;-54
2023/03/30 04:44:03;;;;;;;;;;;;;;;4.59;66.91;95800.94;5056194;28;981;-54
2023/03/30 04:46:30;;;;;;;;;;;;;;;4.80;65.97;95806.50;5056120;28;1040;-54
2023/03/30 04:48:56;;;;;;;;;;;;;;;5.02;66.27;95818.19;5054956;28;1093;-54
2023/03/30 04:51:22;;;;;;;;;;;;;;;5.12;66.42;95810.44;5056167;28;993;-54
2023/03/30 04:53:49;;;;;;;;;;;;;;;5.13;66.26;95812.97;5054707;28;1910;-54
2023/03/30 04:56:15;;;;;;;;;;;;;;;5.17;66.10;95817.09;5054719;28;998;-54
2023/03/30 04:58:41;;;;;;;;;;;;;;;5.35;65.32;95816.69;5055913;28;977;-54
2023/03/30 05:01:08;;;;;;;;;;;;;;;5.30;65.98;95821.50;5056128;28;1027;-54
2023/03/30 05:03:34;;;;;;;;;;;;;;;5.22;65.50;95820.25;5055564;28;1042;-54
2023/03/30 05:06:01;;;;;;;;;;;;;;;5.03;65.75;95826.06;5055944;28;973;-54
2023/03/30 05:08:27;;;;;;;;;;;;;;;5.04;66.61;95822.44;5054862;28;1051;-54
2023/03/30 05:10:53;;;;;;;;;;;;;;;5.30;65.83;95829.47;5055923;28;981;-55
2023/03/30 05:13:19;;;;;;;;;;;;;;;5.45;66.11;95828.34;5055407;28;1910;-54
2023/03/30 05:15:51;;;;;;;;;;;;;;;5.54;65.29;95826.78;5055899;28;1033;-54
2023/03/30 05:18:17;;;;;;;;;;;;;;;5.63;65.67;95832.28;5055773;28;1025;-55
2023/03/30 05:20:43;;;;;;;;;;;;;;;5.82;64.53;95828.22;5055480;28;1848;-55
2023/03/30 05:23:09;;;;;;;;;;;;;;;5.96;64.57;95825.44;5055519;28;1543;-55
2023/03/30 05:25:35;;;;;;;;;;;;;;;6.07;64.46;95821.97;5055461;28;973;-55
2023/03/30 05:28:02;;;;;;;;;;;;;;;6.20;63.27;95828.03;5055238;28;1045;-55
2023/03/30 05:30:28;;;;;;;;;;;;;;;6.30;63.42;95829.94;5055154;28;1028;-55
2023/03/30 05:32:54;;;;;;;;;;;;;;;6.33;63.00;95821.75;5055445;28;2004;-56
2023/03/30 05:35:20;;;;;;;;;;;;;;;6.37;63.07;95825.88;5055171;28;1035;-55
2023/03/30 05:37:48;;;;;;;;;;;;;;;6.40;62.82;95830.94;5055129;28;1089;-54
2023/03/30 05:40:14;;;;;;;;;;;;;;;6.59;61.48;95835.69;5055157;28;1029;-55
2023/03/30 05:42:41;;;;;;;;;;;;;;;6.76;60.90;95839.69;5055133;28;1030;-55
2023/03/30 05:45:08;;;;;;;;;;;;;;;6.92;59.68;95832.16;5055213;28;994;-55
2023/03/30 05:47:34;;;;;;;;;;;;;;;6.96;59.31;95822.13;5054898;28;981;-55
2023/03/30 05:50:01;;;;;;;;;;;;;;;6.92;59.01;95828.66;5054896;28;1105;-54
2023/03/30 05:52:27;;;;;;;;;;;;;;;6.93;59.09;95833.03;5054970;28;1942;-54
2023/03/30 05:54:53;;;;;;;;;;;;;;;6.97;59.25;95826.50;5054956;28;1021;-55
2023/03/30 05:57:20;;;;;;;;;;;;;;;6.99;58.82;95824.56;5054807;28;1060;-55
2023/03/30 05:59:46;;;;;;;;;;;;;;;7.13;59.16;95820.78;5054617;28;1085;-55
2023/03/30 06:02:13;;;;;;;;;;;;;;;7.32;58.00;95823.66;5054878;28;1025;-55
2023/03/30 06:04:39;;;;;;;;;;;;;;;7.47;57.77;95823.38;5054925;28;1025;-55
2023/03/30 06:07:05;;;;;;;;;;;;;;;7.40;56.28;95825.69;5054652;28;1089;-56
2023/03/30 06:09:31;;;;;;;;;;;;;;;7.52;58.26;95826.50;5053454;28;1009;-55
2023/03/30 06:11:57;;;;;;;;;;;;;;;7.62;57.95;95825.59;5054737;28;1983;-56
2023/03/30 06:14:23;;;;;;;;;;;;;;;7.37;59.70;95824.09;5054569;28;965;-55
2023/03/30 06:16:49;;;;;;;;;;;;;;;7.37;60.55;95832.09;5054701;28;983;-54
2023/03/30 06:19:15;;;;;;;;;;;;;;;7.57;59.21;95826.94;5054326;28;957;-54
2023/03/30 06:21:41;;;;;;;;;;;;;;;7.65;59.23;95824.53;5054363;28;1017;-54
2023/03/30 06:24:07;;;;;;;;;;;;;;;7.97;58.67;95829.84;5054384;28;1543;-54
2023/03/30 06:26:33;;;;;;;;;;;;;;;8.12;57.36;95838.34;5054243;28;1104;-54
2023/03/30 06:29:00;;;;;;;;;;;;;;;8.07;57.33;95842.38;5054179;28;973;-56
2023/03/30 06:31:26;;;;;;;;;;;;;;;8.08;56.71;95838.72;5052880;28;1037;-57
2023/03/30 06:33:52;;;;;;;;;;;;;;;8.22;56.47;95843.75;5054048;28;1983;-56
2023/03/30 06:40:45;;;;;;;;;;;;;;;8.25;54.58;95843.47;5050587;28;1233;-56
2023/03/30 06:43:16;;;;;;;;;;;;;;;8.35;56.14;95844.41;5053734;28;1132;-53
2023/03/30 06:45:47;;;;;;;;;;;;;;;8.56;55.25;95836.41;5054127;28;992;-56
2023/03/30 06:48:14;;;;;;;;;;;;;;;9.41;52.73;95850.38;5053874;28;1100;-56
2023/03/30 06:50:40;;;;;;;;;;;;;;;9.70;52.41;95849.59;5053781;28;1045;-56
2023/03/30 06:53:06;;;;;;;;;;;;;;;9.10;52.17;95860.22;5053972;28;1995;-56
2023/03/30 06:55:32;;;;;;;;;;;;;;;8.80;53.76;95856.59;5052597;28;1035;-56
2023/03/30 06:57:58;;;;;;;;;;;;;;;8.70;55.04;95858.38;5053611;28;1070;-55
2023/03/30 07:00:24;;;;;;;;;;;;;;;8.49;54.77;95851.22;5053817;28;1056;-55
2023/03/30 07:02:50;;;;;;;;;;;;;;;8.72;55.11;95854.59;5053855;28;1048;-56
2023/03/30 07:05:16;;;;;;;;;;;;;;;8.87;54.61;95854.25;5053793;28;1056;-56
2023/03/30 07:07:44;;;;;;;;;;;;;;;8.95;53.29;95849.94;5053678;28;1024;-56
2023/03/30 07:10:10;;;;;;;;;;;;;;;9.22;53.39;95816.47;5053746;28;1084;-56
2023/03/30 07:12:37;;;;;;;;;;;;;;;9.44;52.46;95855.44;5053280;28;1981;-56
2023/03/30 07:15:03;;;;;;;;;;;;;;;9.58;52.84;95855.03;5053398;28;1093;-56
2023/03/30 07:17:30;;;;;;;;;;;;;;;9.73;52.23;95852.81;5053263;28;1069;-56
2023/03/30 07:19:56;;;;;;;;;;;;;;;9.62;52.22;95865.44;5053610;28;973;-56
2023/03/30 07:22:22;;;;;;;;;;;;;;;9.41;51.93;95858.38;5052354;28;981;-56
2023/03/30 07:24:48;;;;;;;;;;;;;;;9.38;50.58;95858.66;5053353;28;1522;-56
2023/03/30 07:27:15;;;;;;;;;;;;;;;9.60;51.28;95862.06;5053054;28;1108;-56
2023/03/30 07:29:41;;;;;;;;;;;;;;;10.12;48.92;95862.69;5053457;28;1065;-56
2023/03/30 07:32:07;;;;;;;;;;;;;;;10.80;47.98;95873.31;5052526;28;1906;-56
2023/03/30 07:34:33;;;;;;;;;;;;;;;10.99;46.56;95872.41;5053359;28;957;-56
2023/03/30 07:37:00;;;;;;;;;;;;;;;11.30;45.83;95872.97;5053401;28;1029;-56
2023/03/30 07:39:26;;;;;;;;;;;;;;;11.93;45.18;95878.59;5053060;28;1066;-56
2023/03/30 07:41:53;;;;;;;;;;;;;;;12.63;43.33;95884.09;5053388;28;1017;-56
2023/03/30 07:44:19;;;;;;;;;;;;;;;13.04;43.54;95881.69;5052913;28;1124;-56
2023/03/30 07:46:45;;;;;;;;;;;;;;;13.62;43.24;95889.06;5053356;28;1102;-57
2023/03/30 07:49:11;;;;;;;;;;;;;;;14.05;40.57;95889.84;5053290;28;1177;-56
2023/03/30 07:51:38;;;;;;;;;;;;;;;14.08;40.43;95893.25;5053314;28;977;-56
2023/03/30 07:54:04;;;;;;;;;;;;;;;14.20;38.39;95900.81;5052867;28;1902;-56
2023/03/30 07:56:32;;;;;;;;;;;;;;;14.58;39.14;95900.41;5051657;28;1158;-56
2023/03/30 07:58:58;;;;;;;;;;;;;;;15.11;39.43;95895.47;5052854;28;1022;-55
2023/03/30 08:01:24;;;;;;;;;;;;;;;14.74;37.47;95902.22;5053060;28;994;-56
2023/03/30 08:03:50;;;;;;;;;;;;;;;14.86;38.19;95900.91;5052801;28;1145;-56
2023/03/30 08:06:16;;;;;;;;;;;;;;;14.64;38.51;95897.03;5052680;28;1307;-55
2023/03/30 08:08:42;;;;;;;;;;;;;;;14.96;37.40;95893.47;5052898;28;937;-55
2023/03/30 08:11:09;;;;;;;;;;;;;;;14.79;36.80;95899.88;5053138;28;1074;-55
2023/03/30 08:13:36;;;;;;;;;;;;;;;14.28;38.97;95891.09;5052755;28;1898;-56
2023/03/30 08:16:02;;;;;;;;;;;;;;;14.39;37.82;95883.53;5052633;28;1120;-57
2023/03/30 08:18:28;;;;;;;;;;;;;;;14.65;37.77;95871.81;5052521;28;1101;-57
2023/03/30 08:20:54;;;;;;;;;;;;;;;14.70;37.58;95880.22;5052971;28;1038;-57
2023/03/30 08:23:20;;;;;;;;;;;;;;;14.64;36.25;95880.88;5052471;28;1218;-56
2023/03/30 08:25:51;;;;;;;;;;;;;;;15.58;37.82;95871.25;5052418;28;990;-57
2023/03/30 08:28:18;;;;;;;;;;;;;;;15.45;36.29;95883.63;5052643;28;962;-57
2023/03/30 08:30:45;;;;;;;;;;;;;;;15.53;36.57;95886.28;5052518;28;1058;-57
2023/03/30 08:33:12;;;;;;;;;;;;;;;15.35;36.42;95881.97;5052691;28;1906;-56
2023/03/30 08:35:38;;;;;;;;;;;;;;;15.54;35.92;95875.31;5052491;28;1033;-57
2023/03/30 08:38:04;;;;;;;;;;;;;;;15.76;35.46;95880.97;5051412;28;990;-57
2023/03/30 08:40:30;;;;;;;;;;;;;;;16.34;35.98;95879.66;5052283;28;1223;-57
2023/03/30 08:42:59;;;;;;;;;;;;;;;16.83;34.76;95885.72;5053287;28;1038;-55
2023/03/30 08:45:32;;;;;;;;;;;;;;;16.19;33.75;95884.97;5056282;28;961;-55
2023/03/30 08:47:59;;;;;;;;;;;;;;;16.34;34.52;95886.91;5056077;28;1116;-55
2023/03/30 08:50:28;;;;;;;;;;;;;;;16.51;34.99;95883.06;5054957;28;1041;-55
2023/03/30 08:52:54;;;;;;;;;;;;;;;16.25;33.80;95890.69;5056001;28;1910;-55
2023/03/30 08:55:23;;;;;;;;;;;;;;;16.36;34.19;95884.88;5055670;28;1049;-54
2023/03/30 08:58:05;;;;;;;;;;;;;;;16.47;34.79;95875.53;5056072;28;1171;-54
2023/03/30 09:00:44;;;;;;;;;;;;;;;16.76;33.48;95877.47;5054852;28;978;-52
2023/03/30 09:03:16;;;;;;;;;;;;;;;16.26;33.53;95871.63;5056133;28;997;-55
2023/03/30 09:05:59;;;;;;;;;;;;;;;16.23;33.75;95873.84;5054836;28;1017;-55
2023/03/30 09:08:27;;;;;;;;;;;;;;;16.66;34.16;95863.41;5055985;28;1043;-55
2023/03/30 09:10:58;;;;;;;;;;;;;;;16.85;33.61;95856.69;5055793;28;960;-55
2023/03/30 09:13:27;;;;;;;;;;;;;;;16.72;33.03;95854.56;5055512;28;1918;-55
2023/03/30 09:16:08;;;;;;;;;;;;;;;17.70;33.40;95858.09;5054522;28;1032;-55
2023/03/30 09:18:36;;;;;;;;;;;;;;;17.69;30.72;95859.16;5055546;28;1001;-55
2023/03/30 09:21:04;;;;;;;;;;;;;;;17.08;31.92;95851.22;5055669;28;957;-55
2023/03/30 09:23:31;;;;;;;;;;;;;;;15.50;33.13;95844.34;5055191;28;1503;-55
2023/03/30 09:26:06;;;;;;;;;;;;;;;15.13;34.84;95842.28;5055482;28;1025;-55
2023/03/30 09:28:37;;;;;;;;;;;;;;;14.89;35.55;95833.25;5055148;28;1176;-55
2023/03/30 09:31:21;;;;;;;;;;;;;;;15.18;35.72;95815.69;5055464;28;990;-55
2023/03/30 09:34:00;;;;;;;;;;;;;;;14.98;35.52;95818.75;5055244;28;1914;-55
2023/03/30 09:36:42;;;;;;;;;;;;;;;15.14;34.87;95817.88;5055211;28;1206;-55
2023/03/30 09:39:28;;;;;;;;;;;;;;;15.13;35.64;95812.66;5054829;28;1220;-56
2023/03/30 09:41:54;;;;;;;;;;;;;;;15.28;35.03;95812.78;5054834;28;1693;-54
2023/03/30 09:44:34;;;;;;;;;;;;;;;14.99;35.12;95814.22;5055186;28;1012;-55
2023/03/30 09:47:01;;;;;;;;;;;;;;;14.80;35.96;95805.50;5055139;28;1314;-55
2023/03/30 09:49:28;;;;;;;;;;;;;;;14.58;35.60;95798.97;5054897;28;1079;-55
2023/03/30 09:51:55;;;;;;;;;;;;;;;14.36;36.08;95815.75;5054806;28;1061;-55
2023/03/30 09:54:22;;;;;;;;;;;;;;;14.13;36.67;95807.53;5054307;28;1040;-55
2023/03/30 09:56:52;;;;;;;;;;;;;;;14.18;35.32;95797.09;5054669;28;1037;-55
2023/03/30 09:59:18;;;;;;;;;;;;;;;14.17;37.34;95790.91;5054841;28;949;-55
2023/03/30 10:01:45;;;;;;;;;;;;;;;14.30;35.95;95789.53;5054567;28;1100;-55
2023/03/30 10:04:11;;;;;;;;;;;;;;;14.22;35.46;95788.53;5054807;28;1119;-55
2023/03/30 10:06:38;;;;;;;;;;;;;;;14.24;36.18;95791.88;5054501;28;2101;-55
2023/03/30 10:09:05;;;;;;;;;;;;;;;14.55;35.72;95784.97;5054797;28;957;-55
2023/03/30 10:11:37;;;;;;;;;;;;;;;14.72;36.43;95775.06;5054493;28;1040;-56
2023/03/30 10:14:04;;;;;;;;;;;;;;;15.59;34.91;95789.41;5054280;28;1910;-56
2023/03/30 10:16:33;;;;;;;;;;;;;;;16.00;33.44;95781.06;5054488;28;997;-56
2023/03/30 10:19:04;;;;;;;;;;;;;;;15.87;33.47;95783.53;5054173;28;1054;-55
2023/03/30 10:21:35;;;;;;;;;;;;;;;16.25;32.97;95782.75;5054417;28;973;-56
2023/03/30 10:24:01;;;;;;;;;;;;;;;16.36;32.87;95779.63;5054509;28;1504;-55
2023/03/30 10:26:29;;;;;;;;;;;;;;;16.66;33.29;95780.53;5053900;28;1136;-55
2023/03/30 10:28:59;;;;;;;;;;;;;;;16.24;33.69;95778.34;5054217;28;954;-55
2023/03/30 10:31:26;;;;;;;;;;;;;;;15.74;33.64;95762.53;5054222;28;1056;-55
2023/03/30 10:33:55;;;;;;;;;;;;;;;15.39;34.41;95762.03;5053882;28;1997;-56
2023/03/30 10:36:23;;;;;;;;;;;;;;;15.39;33.93;95756.63;5054091;28;961;-55
2023/03/30 10:38:49;;;;;;;;;;;;;;;15.76;33.93;95751.56;5052419;28;1081;-56
2023/03/30 10:41:19;;;;;;;;;;;;;;;16.23;33.48;95747.03;5052764;28;1006;-56
2023/03/30 10:43:47;;;;;;;;;;;;;;;16.73;33.73;95738.28;5053837;28;1109;-55
2023/03/30 10:46:14;;;;;;;;;;;;;;;16.88;31.82;95741.00;5053640;28;977;-55
2023/03/30 10:48:59;;;;;;;;;;;;;;;16.93;32.65;95741.28;5053636;28;1152;-55
2023/03/30 10:51:43;;;;;;;;;;;;;;;16.67;32.01;95739.00;5053703;28;1025;-55
2023/03/30 10:54:21;;;;;;;;;;;;;;;16.12;33.19;95738.31;5053598;28;1909;-54
2023/03/30 10:56:50;;;;;;;;;;;;;;;16.37;32.96;95733.56;5053579;28;1128;-54
2023/03/30 10:59:31;;;;;;;;;;;;;;;15.97;34.21;95735.59;5053685;28;1216;-54
2023/03/30 11:02:16;;;;;;;;;;;;;;;15.95;33.45;95734.09;5053652;28;945;-55
2023/03/30 11:04:45;;;;;;;;;;;;;;;15.91;34.15;95724.69;5053506;28;1093;-55
2023/03/30 11:07:34;;;;;;;;;;;;;;;16.00;33.53;95723.59;5052633;28;1055;-55
2023/03/30 11:10:07;;;;;;;;;;;;;;;15.99;32.44;95732.69;5053652;28;944;-54
2023/03/30 11:12:36;;;;;;;;;;;;;;;15.96;34.89;95719.59;5053412;28;1902;-54
2023/03/30 11:15:11;;;;;;;;;;;;;;;16.28;34.03;95709.53;5053540;28;984;-54
2023/03/30 11:17:47;;;;;;;;;;;;;;;16.34;33.76;95706.09;5053343;28;1085;-55
2023/03/30 11:20:29;;;;;;;;;;;;;;;16.07;34.04;95707.50;5053223;28;1113;-54
2023/03/30 11:23:09;;;;;;;;;;;;;;;15.89;33.64;95700.59;5053545;28;958;-54
2023/03/30 11:25:38;;;;;;;;;;;;;;;16.06;33.00;95698.59;5033471;28;993;-54
2023/03/30 11:28:10;;;;;;;;;;;;;;;16.11;33.64;95690.81;5033277;28;1861;-56
2023/03/30 11:30:38;;;;;;;;;;;;;;;16.35;34.02;95692.44;5033577;28;1039;-55
2023/03/30 11:33:22;;;;;;;;;;;;;;;16.34;34.22;95695.31;5033493;28;1910;-55
2023/03/30 11:35:54;;;;;;;;;;;;;;;16.34;33.97;95695.31;5033611;28;980;-55
2023/03/30 11:38:23;;;;;;;;;;;;;;;16.00;33.00;95691.25;5033172;28;1037;-54
2023/03/30 11:40:52;;;;;;;;;;;;;;;16.47;32.82;95679.31;5032864;28;1098;-55
2023/03/30 11:43:21;;;;;;;;;;;;;;;16.82;32.65;95685.03;5033417;28;977;-55
2023/03/30 11:45:47;;;;;;;;;;;;;;;17.10;34.21;95676.25;5033249;28;1009;-54
2023/03/30 11:48:16;;;;;;;;;;;;;;;16.90;32.79;95674.16;5033059;28;1591;-54
2023/03/30 11:51:05;;;;;;;;;;;;;;;16.81;32.50;95664.44;5033473;28;973;-53
2023/03/30 11:53:36;;;;;;;;;;;;;;;16.85;34.22;95668.47;5025067;28;1911;-54
2023/03/30 11:56:04;;;;;;;;;;;;;;;16.92;33.99;95666.69;5033216;28;1032;-54
2023/03/30 11:58:34;;;;;;;;;;;;;;;16.91;33.51;95658.78;5033106;28;1036;-54
2023/03/30 12:01:19;;;;;;;;;;;;;;;17.32;33.82;95647.41;5033379;28;992;-54
2023/03/30 12:03:48;;;;;;;;;;;;;;;17.12;33.27;95639.09;5033261;28;1028;-54
2023/03/30 12:06:14;;;;;;;;;;;;;;;17.12;33.44;95637.22;5032892;28;1573;-54
2023/03/30 12:08:52;;;;;;;;;;;;;;;17.12;32.42;95639.09;5032894;28;1046;-54
2023/03/30 12:11:26;;;;;;;;;;;;;;;17.08;33.85;95627.00;5033144;28;945;-54
2023/03/30 12:13:52;;;;;;;;;;;;;;;17.48;32.60;95630.13;5033094;28;1987;-54
2023/03/30 12:16:23;;;;;;;;;;;;;;;17.20;32.65;95630.84;5032793;28;945;-54
2023/03/30 12:18:56;;;;;;;;;;;;;;;16.98;34.08;95611.09;5034304;28;1672;-53
2023/03/30 12:21:36;;;;;;;;;;;;;;;16.52;35.05;95613.97;5036835;28;1011;-54
2023/03/30 12:24:20;;;;;;;;;;;;;;;16.85;34.23;95610.94;5045685;28;1166;-54
2023/03/30 12:26:47;;;;;;;;;;;;;;;17.16;34.35;95606.06;5056846;28;1257;-54
2023/03/30 12:29:15;;;;;;;;;;;;;;;17.13;34.17;95614.59;5056623;28;1044;-54
2023/03/30 12:31:50;;;;;;;;;;;;;;;17.20;34.66;95605.72;5056430;28;1140;-53
2023/03/30 12:34:16;;;;;;;;;;;;;;;17.25;33.91;95600.56;5056199;28;1898;-54
2023/03/30 12:36:48;;;;;;;;;;;;;;;17.17;32.00;95609.63;5056352;28;1030;-53
2023/03/30 12:39:35;;;;;;;;;;;;;;;16.44;32.64;95603.28;5055942;28;1779;-53
2023/03/30 12:42:03;;;;;;;;;;;;;;;16.13;32.92;95602.44;5049040;28;1349;-54
2023/03/30 12:44:35;;;;;;;;;;;;;;;16.15;34.65;95586.91;5056334;28;961;-53
2023/03/30 12:47:08;;;;;;;;;;;;;;;16.34;34.90;95581.97;5056186;28;1085;-52
2023/03/30 12:49:53;;;;;;;;;;;;;;;16.27;34.06;95579.19;5056052;28;1616;-54
2023/03/30 12:52:22;;;;;;;;;;;;;;;16.37;34.51;95571.66;5055870;28;1995;-54
2023/03/30 12:54:48;;;;;;;;;;;;;;;16.31;34.86;95558.88;5056106;28;1036;-54
2023/03/30 12:57:21;;;;;;;;;;;;;;;16.58;34.63;95559.25;5056031;28;1059;-54
2023/03/30 12:59:59;;;;;;;;;;;;;;;16.97;34.86;95558.91;5056098;28;989;-53
2023/03/30 13:02:28;;;;;;;;;;;;;;;17.11;34.80;95550.94;5055770;28;1029;-53
2023/03/30 13:04:54;;;;;;;;;;;;;;;17.04;34.60;95545.47;5055798;28;1076;-53
2023/03/30 13:07:22;;;;;;;;;;;;;;;17.43;34.87;95548.75;5055997;28;1381;-53
2023/03/30 13:10:01;;;;;;;;;;;;;;;17.67;33.89;95548.34;5055975;28;993;-53
2023/03/30 13:12:48;;;;;;;;;;;;;;;17.63;30.93;95555.19;5055866;28;1910;-53
2023/03/30 13:15:33;;;;;;;;;;;;;;;17.31;33.16;95537.66;5055844;28;937;-53
2023/03/30 13:18:08;;;;;;;;;;;;;;;17.13;33.28;95529.97;5055718;28;1001;-53
2023/03/30 13:20:35;;;;;;;;;;;;;;;17.16;32.92;95527.72;5055413;28;1211;-53
2023/03/30 13:23:21;;;;;;;;;;;;;;;17.25;33.18;95517.63;5055495;28;1166;-53